sensor_id;sensor_type;location;lat;lon;timestamp;P1;durP1;ratioP1;P2;durP2;ratioP2
10191;SDS011;17580;50.850;4.504;2022-09-23T00:00:25;2.83;;;1.97;;
10191;SDS011;17580;50.850;4.504;2022-09-23T00:02:52;2.10;;;1.90;;
10191;SDS011;17580;50.850;4.504;2022-09-23T00:05:19;3.37;;;2.00;;
10191;SDS011;17580;50.850;4.504;2022-09-23T00:07:47;1.97;;;1.87;;
10191;SDS011;17580;50.850;4.504;2022-09-23T00:10:14;2.00;;;1.90;;
10191;SDS011;17580;50.850;4.504;2022-09-23T00:12:41;2.10;;;2.00;;
10191;SDS011;17580;50.850;4.504;2022-09-23T00:15:08;2.10;;;2.00;;
10191;SDS011;17580;50.850;4.504;2022-09-23T00:17:36;2.13;;;2.03;;
10191;SDS011;17580;50.850;4.504;2022-09-23T00:20:04;2.20;;;2.10;;
10191;SDS011;17580;50.850;4.504;2022-09-23T00:22:33;2.00;;;1.90;;
10191;SDS011;17580;50.850;4.504;2022-09-23T00:25:02;2.07;;;1.97;;
10191;SDS011;17580;50.850;4.504;2022-09-23T00:27:29;2.00;;;1.90;;
10191;SDS011;17580;50.850;4.504;2022-09-23T00:29:57;2.73;;;2.33;;
10191;SDS011;17580;50.850;4.504;2022-09-23T00:32:24;2.47;;;2.30;;
10191;SDS011;17580;50.850;4.504;2022-09-23T00:34:51;3.07;;;2.30;;
10191;SDS011;17580;50.850;4.504;2022-09-23T00:37:18;2.53;;;2.43;;
10191;SDS011;17580;50.850;4.504;2022-09-23T00:39:45;2.20;;;2.10;;
10191;SDS011;17580;50.850;4.504;2022-09-23T00:42:15;2.70;;;2.47;;
10191;SDS011;17580;50.850;4.504;2022-09-23T00:44:46;2.47;;;2.27;;
10191;SDS011;17580;50.850;4.504;2022-09-23T00:47:16;2.57;;;2.37;;
10191;SDS011;17580;50.850;4.504;2022-09-23T00:49:48;2.60;;;2.40;;
10191;SDS011;17580;50.850;4.504;2022-09-23T00:52:24;2.13;;;2.00;;
10191;SDS011;17580;50.850;4.504;2022-09-23T00:54:52;3.17;;;2.63;;
10191;SDS011;17580;50.850;4.504;2022-09-23T00:57:23;2.93;;;2.73;;
10191;SDS011;17580;50.850;4.504;2022-09-23T00:59:52;2.47;;;2.20;;
10191;SDS011;17580;50.850;4.504;2022-09-23T01:02:19;2.70;;;2.50;;
10191;SDS011;17580;50.850;4.504;2022-09-23T01:04:47;3.03;;;2.40;;
10191;SDS011;17580;50.850;4.504;2022-09-23T01:07:14;2.20;;;2.10;;
10191;SDS011;17580;50.850;4.504;2022-09-23T01:09:41;2.33;;;2.23;;
10191;SDS011;17580;50.850;4.504;2022-09-23T01:12:13;2.60;;;2.30;;
10191;SDS011;17580;50.850;4.504;2022-09-23T01:14:54;3.53;;;2.47;;
10191;SDS011;17580;50.850;4.504;2022-09-23T01:17:29;2.40;;;2.30;;
10191;SDS011;17580;50.850;4.504;2022-09-23T01:20:05;2.73;;;2.63;;
10191;SDS011;17580;50.850;4.504;2022-09-23T01:23:11;3.60;;;2.70;;
10191;SDS011;17580;50.850;4.504;2022-09-23T01:25:58;4.20;;;2.77;;
10191;SDS011;17580;50.850;4.504;2022-09-23T01:28:40;2.73;;;2.60;;
10191;SDS011;17580;50.850;4.504;2022-09-23T01:31:30;2.53;;;2.33;;
10191;SDS011;17580;50.850;4.504;2022-09-23T01:34:04;2.20;;;2.10;;
10191;SDS011;17580;50.850;4.504;2022-09-23T01:36:38;2.30;;;2.00;;
10191;SDS011;17580;50.850;4.504;2022-09-23T01:39:09;2.43;;;2.33;;
10191;SDS011;17580;50.850;4.504;2022-09-23T01:41:43;3.47;;;2.57;;
10191;SDS011;17580;50.850;4.504;2022-09-23T01:44:20;2.60;;;2.40;;
10191;SDS011;17580;50.850;4.504;2022-09-23T01:46:56;2.10;;;2.00;;
10191;SDS011;17580;50.850;4.504;2022-09-23T01:49:27;2.23;;;2.13;;
10191;SDS011;17580;50.850;4.504;2022-09-23T01:52:00;2.30;;;2.20;;
10191;SDS011;17580;50.850;4.504;2022-09-23T01:54:35;4.17;;;2.63;;
10191;SDS011;17580;50.850;4.504;2022-09-23T01:57:06;3.57;;;2.60;;
10191;SDS011;17580;50.850;4.504;2022-09-23T01:59:38;2.50;;;2.40;;
10191;SDS011;17580;50.850;4.504;2022-09-23T02:02:12;2.40;;;2.20;;
10191;SDS011;17580;50.850;4.504;2022-09-23T02:04:44;2.23;;;2.13;;
10191;SDS011;17580;50.850;4.504;2022-09-23T02:07:16;3.40;;;2.00;;
10191;SDS011;17580;50.850;4.504;2022-09-23T02:09:48;2.73;;;2.63;;
10191;SDS011;17580;50.850;4.504;2022-09-23T02:12:20;2.80;;;2.60;;
10191;SDS011;17580;50.850;4.504;2022-09-23T02:14:52;2.47;;;2.37;;
10191;SDS011;17580;50.850;4.504;2022-09-23T02:17:27;2.67;;;2.43;;
10191;SDS011;17580;50.850;4.504;2022-09-23T02:20:00;3.70;;;2.80;;
10191;SDS011;17580;50.850;4.504;2022-09-23T02:22:32;3.07;;;2.97;;
10191;SDS011;17580;50.850;4.504;2022-09-23T02:25:05;2.57;;;2.40;;
10191;SDS011;17580;50.850;4.504;2022-09-23T02:27:35;2.70;;;2.50;;
10191;SDS011;17580;50.850;4.504;2022-09-23T02:33:32;2.47;;;2.30;;
10191;SDS011;17580;50.850;4.504;2022-09-23T02:36:04;4.73;;;2.60;;
10191;SDS011;17580;50.850;4.504;2022-09-23T02:38:38;3.50;;;2.83;;
10191;SDS011;17580;50.850;4.504;2022-09-23T02:41:09;2.53;;;2.43;;
10191;SDS011;17580;50.850;4.504;2022-09-23T02:43:41;2.77;;;2.50;;
10191;SDS011;17580;50.850;4.504;2022-09-23T02:46:12;2.70;;;2.50;;
10191;SDS011;17580;50.850;4.504;2022-09-23T02:48:42;2.77;;;2.40;;
10191;SDS011;17580;50.850;4.504;2022-09-23T02:51:11;2.70;;;2.50;;
10191;SDS011;17580;50.850;4.504;2022-09-23T02:53:38;2.90;;;2.67;;
10191;SDS011;17580;50.850;4.504;2022-09-23T02:56:11;3.67;;;2.57;;
10191;SDS011;17580;50.850;4.504;2022-09-23T02:58:40;2.60;;;2.40;;
10191;SDS011;17580;50.850;4.504;2022-09-23T03:01:10;3.07;;;2.60;;
10191;SDS011;17580;50.850;4.504;2022-09-23T03:03:45;3.10;;;2.90;;
10191;SDS011;17580;50.850;4.504;2022-09-23T03:06:23;2.70;;;2.50;;
10191;SDS011;17580;50.850;4.504;2022-09-23T03:08:57;2.70;;;2.53;;
10191;SDS011;17580;50.850;4.504;2022-09-23T03:11:31;2.97;;;2.77;;
10191;SDS011;17580;50.850;4.504;2022-09-23T03:14:03;3.13;;;2.90;;
10191;SDS011;17580;50.850;4.504;2022-09-23T03:16:42;3.27;;;2.90;;
10191;SDS011;17580;50.850;4.504;2022-09-23T03:19:18;2.50;;;2.40;;
10191;SDS011;17580;50.850;4.504;2022-09-23T03:21:51;3.13;;;2.93;;
10191;SDS011;17580;50.850;4.504;2022-09-23T03:24:26;4.07;;;2.47;;
10191;SDS011;17580;50.850;4.504;2022-09-23T03:26:56;3.03;;;2.83;;
10191;SDS011;17580;50.850;4.504;2022-09-23T03:29:27;3.17;;;2.97;;
10191;SDS011;17580;50.850;4.504;2022-09-23T03:31:56;8.00;;;2.77;;
10191;SDS011;17580;50.850;4.504;2022-09-23T03:34:26;5.10;;;2.60;;
10191;SDS011;17580;50.850;4.504;2022-09-23T03:36:58;2.50;;;2.37;;
10191;SDS011;17580;50.850;4.504;2022-09-23T03:39:35;3.47;;;2.50;;
10191;SDS011;17580;50.850;4.504;2022-09-23T03:42:06;2.70;;;2.37;;
10191;SDS011;17580;50.850;4.504;2022-09-23T03:44:41;3.90;;;3.00;;
10191;SDS011;17580;50.850;4.504;2022-09-23T03:47:09;3.67;;;2.57;;
10191;SDS011;17580;50.850;4.504;2022-09-23T03:49:40;3.10;;;2.90;;
10191;SDS011;17580;50.850;4.504;2022-09-23T03:52:09;5.90;;;3.30;;
10191;SDS011;17580;50.850;4.504;2022-09-23T03:54:36;3.33;;;2.63;;
10191;SDS011;17580;50.850;4.504;2022-09-23T03:57:03;3.07;;;2.87;;
10191;SDS011;17580;50.850;4.504;2022-09-23T03:59:31;3.30;;;3.00;;
10191;SDS011;17580;50.850;4.504;2022-09-23T04:01:58;3.30;;;3.07;;
10191;SDS011;17580;50.850;4.504;2022-09-23T04:04:26;3.60;;;3.30;;
10191;SDS011;17580;50.850;4.504;2022-09-23T04:06:57;4.70;;;3.00;;
10191;SDS011;17580;50.850;4.504;2022-09-23T04:09:25;4.10;;;2.97;;
10191;SDS011;17580;50.850;4.504;2022-09-23T04:11:52;5.33;;;3.20;;
10191;SDS011;17580;50.850;4.504;2022-09-23T04:14:20;4.07;;;3.40;;
10191;SDS011;17580;50.850;4.504;2022-09-23T04:16:48;2.97;;;2.77;;
10191;SDS011;17580;50.850;4.504;2022-09-23T04:19:15;4.40;;;3.07;;
10191;SDS011;17580;50.850;4.504;2022-09-23T04:21:43;3.43;;;3.10;;
10191;SDS011;17580;50.850;4.504;2022-09-23T04:24:11;3.63;;;2.93;;
10191;SDS011;17580;50.850;4.504;2022-09-23T04:26:39;4.43;;;3.43;;
10191;SDS011;17580;50.850;4.504;2022-09-23T04:29:06;3.97;;;3.27;;
10191;SDS011;17580;50.850;4.504;2022-09-23T04:31:33;3.00;;;2.80;;
10191;SDS011;17580;50.850;4.504;2022-09-23T04:34:00;3.27;;;2.97;;
10191;SDS011;17580;50.850;4.504;2022-09-23T04:36:27;5.80;;;3.60;;
10191;SDS011;17580;50.850;4.504;2022-09-23T04:38:55;4.47;;;2.90;;
10191;SDS011;17580;50.850;4.504;2022-09-23T04:41:23;3.53;;;3.23;;
10191;SDS011;17580;50.850;4.504;2022-09-23T04:43:51;4.40;;;3.27;;
10191;SDS011;17580;50.850;4.504;2022-09-23T04:46:17;3.80;;;2.63;;
10191;SDS011;17580;50.850;4.504;2022-09-23T04:48:44;9.07;;;3.30;;
10191;SDS011;17580;50.850;4.504;2022-09-23T04:51:12;3.50;;;3.10;;
10191;SDS011;17580;50.850;4.504;2022-09-23T04:53:41;4.43;;;3.03;;
10191;SDS011;17580;50.850;4.504;2022-09-23T04:56:10;6.20;;;3.27;;
10191;SDS011;17580;50.850;4.504;2022-09-23T04:58:41;6.23;;;3.47;;
10191;SDS011;17580;50.850;4.504;2022-09-23T05:01:09;3.67;;;2.97;;
10191;SDS011;17580;50.850;4.504;2022-09-23T05:03:38;4.73;;;3.80;;
10191;SDS011;17580;50.850;4.504;2022-09-23T05:06:05;3.60;;;3.10;;
10191;SDS011;17580;50.850;4.504;2022-09-23T05:08:33;4.57;;;3.73;;
10191;SDS011;17580;50.850;4.504;2022-09-23T05:11:00;3.93;;;3.57;;
10191;SDS011;17580;50.850;4.504;2022-09-23T05:13:29;4.20;;;3.80;;
10191;SDS011;17580;50.850;4.504;2022-09-23T05:15:58;3.90;;;3.60;;
10191;SDS011;17580;50.850;4.504;2022-09-23T05:18:26;4.80;;;3.27;;
10191;SDS011;17580;50.850;4.504;2022-09-23T05:20:53;5.20;;;3.83;;
10191;SDS011;17580;50.850;4.504;2022-09-23T05:23:21;5.10;;;3.70;;
10191;SDS011;17580;50.850;4.504;2022-09-23T05:25:52;4.10;;;3.70;;
10191;SDS011;17580;50.850;4.504;2022-09-23T05:28:23;5.23;;;3.63;;
10191;SDS011;17580;50.850;4.504;2022-09-23T05:30:52;6.13;;;3.73;;
10191;SDS011;17580;50.850;4.504;2022-09-23T05:33:20;3.67;;;3.20;;
10191;SDS011;17580;50.850;4.504;2022-09-23T05:35:47;4.17;;;3.23;;
10191;SDS011;17580;50.850;4.504;2022-09-23T05:38:14;3.90;;;3.20;;
10191;SDS011;17580;50.850;4.504;2022-09-23T05:40:42;4.20;;;3.10;;
10191;SDS011;17580;50.850;4.504;2022-09-23T05:43:09;4.37;;;3.67;;
10191;SDS011;17580;50.850;4.504;2022-09-23T05:45:36;3.73;;;3.33;;
10191;SDS011;17580;50.850;4.504;2022-09-23T05:48:03;5.63;;;3.20;;
10191;SDS011;17580;50.850;4.504;2022-09-23T05:50:31;4.93;;;3.23;;
10191;SDS011;17580;50.850;4.504;2022-09-23T05:52:58;4.00;;;3.00;;
10191;SDS011;17580;50.850;4.504;2022-09-23T05:55:25;4.10;;;3.40;;
10191;SDS011;17580;50.850;4.504;2022-09-23T05:57:52;5.37;;;3.13;;
10191;SDS011;17580;50.850;4.504;2022-09-23T06:00:19;4.53;;;3.50;;
10191;SDS011;17580;50.850;4.504;2022-09-23T06:02:46;3.67;;;3.17;;
10191;SDS011;17580;50.850;4.504;2022-09-23T06:05:14;3.63;;;3.03;;
10191;SDS011;17580;50.850;4.504;2022-09-23T06:07:42;5.20;;;3.50;;
10191;SDS011;17580;50.850;4.504;2022-09-23T06:10:10;3.53;;;3.20;;
10191;SDS011;17580;50.850;4.504;2022-09-23T06:12:37;4.50;;;3.53;;
10191;SDS011;17580;50.850;4.504;2022-09-23T06:15:04;4.93;;;3.60;;
10191;SDS011;17580;50.850;4.504;2022-09-23T06:17:33;9.57;;;3.87;;
10191;SDS011;17580;50.850;4.504;2022-09-23T06:20:00;3.80;;;3.40;;
10191;SDS011;17580;50.850;4.504;2022-09-23T06:22:27;5.30;;;3.40;;
10191;SDS011;17580;50.850;4.504;2022-09-23T06:24:55;4.40;;;3.33;;
10191;SDS011;17580;50.850;4.504;2022-09-23T06:27:22;4.30;;;3.03;;
10191;SDS011;17580;50.850;4.504;2022-09-23T06:29:49;6.50;;;3.87;;
10191;SDS011;17580;50.850;4.504;2022-09-23T06:32:16;3.77;;;3.47;;
10191;SDS011;17580;50.850;4.504;2022-09-23T06:34:43;5.53;;;3.37;;
10191;SDS011;17580;50.850;4.504;2022-09-23T06:37:10;5.10;;;3.70;;
10191;SDS011;17580;50.850;4.504;2022-09-23T06:39:37;5.67;;;3.27;;
10191;SDS011;17580;50.850;4.504;2022-09-23T06:42:06;5.93;;;3.67;;
10191;SDS011;17580;50.850;4.504;2022-09-23T06:44:33;4.40;;;3.20;;
10191;SDS011;17580;50.850;4.504;2022-09-23T06:47:00;6.90;;;3.53;;
10191;SDS011;17580;50.850;4.504;2022-09-23T06:49:27;6.43;;;3.80;;
10191;SDS011;17580;50.850;4.504;2022-09-23T06:51:55;3.47;;;3.00;;
10191;SDS011;17580;50.850;4.504;2022-09-23T06:54:22;5.23;;;3.43;;
10191;SDS011;17580;50.850;4.504;2022-09-23T06:56:52;6.97;;;3.27;;
10191;SDS011;17580;50.850;4.504;2022-09-23T06:59:20;4.97;;;3.73;;
10191;SDS011;17580;50.850;4.504;2022-09-23T07:01:49;10.70;;;4.27;;
10191;SDS011;17580;50.850;4.504;2022-09-23T07:04:16;6.23;;;4.23;;
10191;SDS011;17580;50.850;4.504;2022-09-23T07:06:43;5.63;;;4.10;;
10191;SDS011;17580;50.850;4.504;2022-09-23T07:09:10;6.20;;;3.77;;
10191;SDS011;17580;50.850;4.504;2022-09-23T07:11:37;7.47;;;4.57;;
10191;SDS011;17580;50.850;4.504;2022-09-23T07:14:04;3.90;;;3.03;;
10191;SDS011;17580;50.850;4.504;2022-09-23T07:16:32;4.77;;;3.67;;
10191;SDS011;17580;50.850;4.504;2022-09-23T07:18:59;5.17;;;4.50;;
10191;SDS011;17580;50.850;4.504;2022-09-23T07:21:26;6.27;;;3.67;;
10191;SDS011;17580;50.850;4.504;2022-09-23T07:23:53;5.77;;;3.77;;
10191;SDS011;17580;50.850;4.504;2022-09-23T07:26:22;3.33;;;3.03;;
10191;SDS011;17580;50.850;4.504;2022-09-23T07:28:51;4.70;;;3.37;;
10191;SDS011;17580;50.850;4.504;2022-09-23T07:31:20;6.30;;;4.43;;
10191;SDS011;17580;50.850;4.504;2022-09-23T07:33:54;5.13;;;3.27;;
10191;SDS011;17580;50.850;4.504;2022-09-23T07:36:22;5.17;;;3.83;;
10191;SDS011;17580;50.850;4.504;2022-09-23T07:38:51;5.90;;;3.27;;
10191;SDS011;17580;50.850;4.504;2022-09-23T07:41:21;5.70;;;3.97;;
10191;SDS011;17580;50.850;4.504;2022-09-23T07:43:50;5.40;;;3.50;;
10191;SDS011;17580;50.850;4.504;2022-09-23T07:46:23;5.17;;;3.40;;
10191;SDS011;17580;50.850;4.504;2022-09-23T07:48:53;4.03;;;3.30;;
10191;SDS011;17580;50.850;4.504;2022-09-23T07:51:20;5.77;;;3.70;;
10191;SDS011;17580;50.850;4.504;2022-09-23T07:53:50;6.80;;;4.00;;
10191;SDS011;17580;50.850;4.504;2022-09-23T07:56:19;6.50;;;4.00;;
10191;SDS011;17580;50.850;4.504;2022-09-23T07:58:49;3.37;;;2.90;;
10191;SDS011;17580;50.850;4.504;2022-09-23T08:01:25;6.27;;;3.73;;
10191;SDS011;17580;50.850;4.504;2022-09-23T08:03:54;5.03;;;3.60;;
10191;SDS011;17580;50.850;4.504;2022-09-23T08:06:21;4.77;;;3.57;;
10191;SDS011;17580;50.850;4.504;2022-09-23T08:08:48;4.87;;;3.70;;
10191;SDS011;17580;50.850;4.504;2022-09-23T08:11:16;8.50;;;4.30;;
10191;SDS011;17580;50.850;4.504;2022-09-23T08:13:43;5.40;;;3.43;;
10191;SDS011;17580;50.850;4.504;2022-09-23T08:16:10;4.43;;;3.23;;
10191;SDS011;17580;50.850;4.504;2022-09-23T08:18:37;5.17;;;3.33;;
10191;SDS011;17580;50.850;4.504;2022-09-23T08:21:06;4.83;;;3.70;;
10191;SDS011;17580;50.850;4.504;2022-09-23T08:23:33;4.87;;;3.57;;
10191;SDS011;17580;50.850;4.504;2022-09-23T08:26:03;6.10;;;4.47;;
10191;SDS011;17580;50.850;4.504;2022-09-23T08:28:31;6.50;;;4.30;;
10191;SDS011;17580;50.850;4.504;2022-09-23T08:30:59;5.77;;;3.87;;
10191;SDS011;17580;50.850;4.504;2022-09-23T08:33:26;6.43;;;3.90;;
10191;SDS011;17580;50.850;4.504;2022-09-23T08:35:57;3.57;;;3.27;;
10191;SDS011;17580;50.850;4.504;2022-09-23T08:38:26;6.37;;;4.10;;
10191;SDS011;17580;50.850;4.504;2022-09-23T08:40:54;7.50;;;4.23;;
10191;SDS011;17580;50.850;4.504;2022-09-23T08:43:31;4.30;;;3.90;;
10191;SDS011;17580;50.850;4.504;2022-09-23T08:46:01;10.50;;;3.77;;
10191;SDS011;17580;50.850;4.504;2022-09-23T08:48:31;6.53;;;4.40;;
10191;SDS011;17580;50.850;4.504;2022-09-23T08:51:02;6.63;;;3.80;;
10191;SDS011;17580;50.850;4.504;2022-09-23T08:53:33;3.40;;;3.20;;
10191;SDS011;17580;50.850;4.504;2022-09-23T08:56:02;4.60;;;3.20;;
10191;SDS011;17580;50.850;4.504;2022-09-23T08:58:41;5.97;;;3.80;;
10191;SDS011;17580;50.850;4.504;2022-09-23T09:01:17;6.53;;;3.83;;
10191;SDS011;17580;50.850;4.504;2022-09-23T09:03:49;6.50;;;3.20;;
10191;SDS011;17580;50.850;4.504;2022-09-23T09:06:20;6.10;;;3.40;;
10191;SDS011;17580;50.850;4.504;2022-09-23T09:08:55;5.27;;;3.20;;
10191;SDS011;17580;50.850;4.504;2022-09-23T09:11:25;6.30;;;3.43;;
10191;SDS011;17580;50.850;4.504;2022-09-23T09:14:00;9.50;;;3.13;;
10191;SDS011;17580;50.850;4.504;2022-09-23T09:16:45;8.53;;;3.97;;
10191;SDS011;17580;50.850;4.504;2022-09-23T09:19:18;4.03;;;3.60;;
10191;SDS011;17580;50.850;4.504;2022-09-23T09:21:51;3.30;;;2.93;;
10191;SDS011;17580;50.850;4.504;2022-09-23T09:24:24;4.67;;;3.33;;
10191;SDS011;17580;50.850;4.504;2022-09-23T09:26:57;6.23;;;3.77;;
10191;SDS011;17580;50.850;4.504;2022-09-23T09:29:26;6.43;;;3.37;;
10191;SDS011;17580;50.850;4.504;2022-09-23T09:31:57;4.70;;;3.10;;
10191;SDS011;17580;50.850;4.504;2022-09-23T09:34:28;3.63;;;2.83;;
10191;SDS011;17580;50.850;4.504;2022-09-23T09:37:00;2.93;;;2.73;;
10191;SDS011;17580;50.850;4.504;2022-09-23T09:39:32;5.03;;;3.47;;
10191;SDS011;17580;50.850;4.504;2022-09-23T09:42:00;7.80;;;4.00;;
10191;SDS011;17580;50.850;4.504;2022-09-23T09:44:30;4.13;;;3.47;;
10191;SDS011;17580;50.850;4.504;2022-09-23T09:47:13;5.07;;;3.37;;
10191;SDS011;17580;50.850;4.504;2022-09-23T09:49:53;4.93;;;3.70;;
10191;SDS011;17580;50.850;4.504;2022-09-23T09:52:23;4.07;;;3.20;;
10191;SDS011;17580;50.850;4.504;2022-09-23T09:54:55;5.03;;;3.53;;
10191;SDS011;17580;50.850;4.504;2022-09-23T09:57:46;8.00;;;3.50;;
10191;SDS011;17580;50.850;4.504;2022-09-23T10:00:30;3.30;;;3.00;;
10191;SDS011;17580;50.850;4.504;2022-09-23T10:03:21;10.37;;;4.37;;
10191;SDS011;17580;50.850;4.504;2022-09-23T10:05:52;4.80;;;3.70;;
10191;SDS011;17580;50.850;4.504;2022-09-23T10:08:25;8.10;;;4.00;;
10191;SDS011;17580;50.850;4.504;2022-09-23T10:11:01;3.87;;;3.40;;
10191;SDS011;17580;50.850;4.504;2022-09-23T10:13:29;4.00;;;3.60;;
10191;SDS011;17580;50.850;4.504;2022-09-23T10:15:57;5.13;;;3.53;;
10191;SDS011;17580;50.850;4.504;2022-09-23T10:18:27;5.50;;;4.03;;
10191;SDS011;17580;50.850;4.504;2022-09-23T10:21:01;8.53;;;3.70;;
10191;SDS011;17580;50.850;4.504;2022-09-23T10:23:33;7.00;;;4.17;;
10191;SDS011;17580;50.850;4.504;2022-09-23T10:26:06;3.60;;;3.30;;
10191;SDS011;17580;50.850;4.504;2022-09-23T10:28:39;4.53;;;3.93;;
10191;SDS011;17580;50.850;4.504;2022-09-23T10:31:20;5.70;;;4.00;;
10191;SDS011;17580;50.850;4.504;2022-09-23T10:33:50;4.53;;;3.40;;
10191;SDS011;17580;50.850;4.504;2022-09-23T10:36:21;4.07;;;3.33;;
10191;SDS011;17580;50.850;4.504;2022-09-23T10:38:49;6.97;;;4.40;;
10191;SDS011;17580;50.850;4.504;2022-09-23T10:41:42;3.60;;;3.30;;
10191;SDS011;17580;50.850;4.504;2022-09-23T10:44:39;4.93;;;3.83;;
10191;SDS011;17580;50.850;4.504;2022-09-23T10:47:35;8.97;;;3.83;;
10191;SDS011;17580;50.850;4.504;2022-09-23T10:50:17;4.83;;;3.47;;
10191;SDS011;17580;50.850;4.504;2022-09-23T10:52:54;6.87;;;3.80;;
10191;SDS011;17580;50.850;4.504;2022-09-23T10:55:34;4.93;;;3.00;;
10191;SDS011;17580;50.850;4.504;2022-09-23T10:58:16;3.40;;;2.93;;
10191;SDS011;17580;50.850;4.504;2022-09-23T11:00:57;9.60;;;3.50;;
10191;SDS011;17580;50.850;4.504;2022-09-23T11:03:51;3.87;;;3.50;;
10191;SDS011;17580;50.850;4.504;2022-09-23T11:06:36;4.30;;;3.53;;
10191;SDS011;17580;50.850;4.504;2022-09-23T11:09:21;5.23;;;3.20;;
10191;SDS011;17580;50.850;4.504;2022-09-23T11:11:59;3.33;;;3.03;;
10191;SDS011;17580;50.850;4.504;2022-09-23T11:14:39;3.20;;;2.90;;
10191;SDS011;17580;50.850;4.504;2022-09-23T11:17:22;3.77;;;3.40;;
10191;SDS011;17580;50.850;4.504;2022-09-23T11:20:05;3.87;;;3.43;;
10191;SDS011;17580;50.850;4.504;2022-09-23T11:22:46;4.40;;;3.77;;
10191;SDS011;17580;50.850;4.504;2022-09-23T11:25:33;5.33;;;3.97;;
10191;SDS011;17580;50.850;4.504;2022-09-23T11:28:24;3.83;;;3.30;;
10191;SDS011;17580;50.850;4.504;2022-09-23T11:31:14;3.43;;;3.17;;
10191;SDS011;17580;50.850;4.504;2022-09-23T11:33:52;5.77;;;3.60;;
10191;SDS011;17580;50.850;4.504;2022-09-23T11:36:29;4.43;;;3.57;;
10191;SDS011;17580;50.850;4.504;2022-09-23T11:39:00;4.47;;;4.07;;
10191;SDS011;17580;50.850;4.504;2022-09-23T11:41:35;8.00;;;4.20;;
10191;SDS011;17580;50.850;4.504;2022-09-23T11:44:05;5.97;;;4.17;;
10191;SDS011;17580;50.850;4.504;2022-09-23T11:46:39;5.87;;;3.37;;
10191;SDS011;17580;50.850;4.504;2022-09-23T11:49:11;5.67;;;4.67;;
10191;SDS011;17580;50.850;4.504;2022-09-23T11:51:43;4.20;;;3.80;;
10191;SDS011;17580;50.850;4.504;2022-09-23T11:54:22;6.73;;;4.33;;
10191;SDS011;17580;50.850;4.504;2022-09-23T11:56:54;7.10;;;4.67;;
10191;SDS011;17580;50.850;4.504;2022-09-23T11:59:27;4.27;;;3.73;;
10191;SDS011;17580;50.850;4.504;2022-09-23T12:02:03;4.60;;;4.20;;
10191;SDS011;17580;50.850;4.504;2022-09-23T12:04:38;7.97;;;4.50;;
10191;SDS011;17580;50.850;4.504;2022-09-23T12:07:10;5.23;;;4.40;;
10191;SDS011;17580;50.850;4.504;2022-09-23T12:09:42;6.73;;;5.17;;
10191;SDS011;17580;50.850;4.504;2022-09-23T12:12:21;5.97;;;4.20;;
10191;SDS011;17580;50.850;4.504;2022-09-23T12:14:54;4.73;;;3.90;;
10191;SDS011;17580;50.850;4.504;2022-09-23T12:17:32;5.23;;;3.57;;
10191;SDS011;17580;50.850;4.504;2022-09-23T12:20:30;6.50;;;4.13;;
10191;SDS011;17580;50.850;4.504;2022-09-23T12:23:22;6.70;;;4.70;;
10191;SDS011;17580;50.850;4.504;2022-09-23T12:26:02;4.30;;;3.50;;
10191;SDS011;17580;50.850;4.504;2022-09-23T12:28:33;5.93;;;4.63;;
10191;SDS011;17580;50.850;4.504;2022-09-23T12:31:04;7.13;;;4.07;;
10191;SDS011;17580;50.850;4.504;2022-09-23T12:33:37;5.90;;;4.83;;
10191;SDS011;17580;50.850;4.504;2022-09-23T12:36:06;7.87;;;4.67;;
10191;SDS011;17580;50.850;4.504;2022-09-23T12:38:36;7.00;;;4.30;;
10191;SDS011;17580;50.850;4.504;2022-09-23T12:41:17;4.50;;;4.10;;
10191;SDS011;17580;50.850;4.504;2022-09-23T12:43:51;10.83;;;4.23;;
10191;SDS011;17580;50.850;4.504;2022-09-23T12:46:20;9.20;;;5.13;;
10191;SDS011;17580;50.850;4.504;2022-09-23T12:49:01;5.50;;;4.13;;
10191;SDS011;17580;50.850;4.504;2022-09-23T12:51:31;5.10;;;4.60;;
10191;SDS011;17580;50.850;4.504;2022-09-23T12:57:00;8.33;;;4.10;;
10191;SDS011;17580;50.850;4.504;2022-09-23T12:59:51;4.87;;;3.77;;
10191;SDS011;17580;50.850;4.504;2022-09-23T13:02:30;7.10;;;4.20;;
10191;SDS011;17580;50.850;4.504;2022-09-23T13:05:07;5.27;;;4.07;;
10191;SDS011;17580;50.850;4.504;2022-09-23T13:08:00;8.10;;;4.83;;
10191;SDS011;17580;50.850;4.504;2022-09-23T13:10:30;6.77;;;3.83;;
10191;SDS011;17580;50.850;4.504;2022-09-23T13:12:59;6.93;;;4.03;;
10191;SDS011;17580;50.850;4.504;2022-09-23T13:15:28;6.60;;;4.80;;
10191;SDS011;17580;50.850;4.504;2022-09-23T13:20:51;4.73;;;4.23;;
10191;SDS011;17580;50.850;4.504;2022-09-23T13:23:21;11.17;;;4.40;;
10191;SDS011;17580;50.850;4.504;2022-09-23T13:25:49;10.00;;;5.20;;
10191;SDS011;17580;50.850;4.504;2022-09-23T13:28:25;9.93;;;4.37;;
10191;SDS011;17580;50.850;4.504;2022-09-23T13:30:54;6.27;;;4.00;;
10191;SDS011;17580;50.850;4.504;2022-09-23T13:33:27;6.60;;;4.07;;
10191;SDS011;17580;50.850;4.504;2022-09-23T13:36:00;7.20;;;4.50;;
10191;SDS011;17580;50.850;4.504;2022-09-23T13:38:30;12.87;;;4.90;;
10191;SDS011;17580;50.850;4.504;2022-09-23T13:41:00;8.03;;;5.23;;
10191;SDS011;17580;50.850;4.504;2022-09-23T13:43:30;4.33;;;3.90;;
10191;SDS011;17580;50.850;4.504;2022-09-23T13:46:00;4.17;;;3.10;;
10191;SDS011;17580;50.850;4.504;2022-09-23T13:48:29;4.10;;;3.50;;
10191;SDS011;17580;50.850;4.504;2022-09-23T13:51:07;8.87;;;4.27;;
10191;SDS011;17580;50.850;4.504;2022-09-23T13:53:37;5.93;;;4.43;;
10191;SDS011;17580;50.850;4.504;2022-09-23T13:56:05;5.93;;;3.70;;
10191;SDS011;17580;50.850;4.504;2022-09-23T13:58:35;4.27;;;3.63;;
10191;SDS011;17580;50.850;4.504;2022-09-23T14:01:02;4.47;;;3.73;;
10191;SDS011;17580;50.850;4.504;2022-09-23T14:03:34;3.57;;;3.20;;
10191;SDS011;17580;50.850;4.504;2022-09-23T14:06:04;6.60;;;3.57;;
10191;SDS011;17580;50.850;4.504;2022-09-23T14:08:35;4.33;;;3.70;;
10191;SDS011;17580;50.850;4.504;2022-09-23T14:11:04;3.80;;;3.00;;
10191;SDS011;17580;50.850;4.504;2022-09-23T14:13:34;3.60;;;3.13;;
10191;SDS011;17580;50.850;4.504;2022-09-23T14:16:08;5.67;;;4.33;;
10191;SDS011;17580;50.850;4.504;2022-09-23T14:18:39;5.17;;;4.30;;
10191;SDS011;17580;50.850;4.504;2022-09-23T14:23:59;4.53;;;4.13;;
10191;SDS011;17580;50.850;4.504;2022-09-23T14:26:38;5.43;;;4.10;;
10191;SDS011;17580;50.850;4.504;2022-09-23T14:29:07;4.60;;;4.20;;
10191;SDS011;17580;50.850;4.504;2022-09-23T14:31:39;5.57;;;4.00;;
10191;SDS011;17580;50.850;4.504;2022-09-23T14:37:08;4.60;;;3.50;;
10191;SDS011;17580;50.850;4.504;2022-09-23T14:40:04;5.03;;;3.40;;
10191;SDS011;17580;50.850;4.504;2022-09-23T14:42:36;6.40;;;3.90;;
10191;SDS011;17580;50.850;4.504;2022-09-23T14:45:06;3.63;;;3.17;;
10191;SDS011;17580;50.850;4.504;2022-09-23T14:47:40;4.27;;;3.63;;
10191;SDS011;17580;50.850;4.504;2022-09-23T14:50:13;4.47;;;3.07;;
10191;SDS011;17580;50.850;4.504;2022-09-23T14:52:58;6.10;;;3.90;;
10191;SDS011;17580;50.850;4.504;2022-09-23T14:55:28;7.30;;;4.00;;
10191;SDS011;17580;50.850;4.504;2022-09-23T14:58:00;3.40;;;3.20;;
10191;SDS011;17580;50.850;4.504;2022-09-23T15:00:29;3.97;;;3.57;;
10191;SDS011;17580;50.850;4.504;2022-09-23T15:02:57;5.00;;;3.30;;
10191;SDS011;17580;50.850;4.504;2022-09-23T15:05:29;3.53;;;3.23;;
10191;SDS011;17580;50.850;4.504;2022-09-23T15:08:04;5.47;;;4.20;;
10191;SDS011;17580;50.850;4.504;2022-09-23T15:10:35;3.00;;;2.80;;
10191;SDS011;17580;50.850;4.504;2022-09-23T15:13:04;5.73;;;3.23;;
10191;SDS011;17580;50.850;4.504;2022-09-23T15:15:33;3.70;;;3.40;;
10191;SDS011;17580;50.850;4.504;2022-09-23T15:18:02;4.87;;;3.17;;
10191;SDS011;17580;50.850;4.504;2022-09-23T15:20:31;4.97;;;3.07;;
10191;SDS011;17580;50.850;4.504;2022-09-23T15:22:59;3.20;;;2.90;;
10191;SDS011;17580;50.850;4.504;2022-09-23T15:25:29;3.30;;;3.00;;
10191;SDS011;17580;50.850;4.504;2022-09-23T15:28:03;3.93;;;2.90;;
10191;SDS011;17580;50.850;4.504;2022-09-23T15:30:42;2.60;;;2.40;;